createdAt,value
2018-03-04T00:00:28.518Z,-6.59
2018-03-04T00:01:28.268Z,-6.55
2018-03-04T00:02:28.527Z,-6.59
2018-03-04T00:03:28.541Z,-6.63
2018-03-04T00:04:28.550Z,-6.54
2018-03-04T00:05:28.559Z,-6.63
2018-03-04T00:06:28.567Z,-6.61
2018-03-04T00:07:43.241Z,-6.54
2018-03-04T00:08:28.720Z,-6.61
2018-03-04T00:09:43.256Z,-6.62
2018-03-04T00:10:28.602Z,-6.68
2018-03-04T00:11:28.613Z,-6.71
2018-03-04T00:12:28.106Z,-6.68
2018-03-04T00:13:28.635Z,-6.71
2018-03-04T00:14:28.635Z,-6.69
2018-03-04T00:15:28.644Z,-6.66
2018-03-04T00:16:28.653Z,-6.8
2018-03-04T00:17:28.669Z,-6.84
2018-03-04T00:18:28.413Z,-6.74
2018-03-04T00:19:28.681Z,-6.73
2018-03-04T00:20:28.685Z,-6.66
2018-03-04T00:21:28.694Z,-6.71
2018-03-04T00:22:43.371Z,-6.69
2018-03-04T00:23:28.717Z,-6.69
2018-03-04T00:24:28.718Z,-6.79
2018-03-04T00:25:28.738Z,-6.73
2018-03-04T00:26:28.745Z,-6.69
2018-03-04T00:27:28.794Z,-6.76
2018-03-04T00:28:28.763Z,-6.76
2018-03-04T00:29:28.509Z,-6.79
2018-03-04T00:30:28.775Z,-6.82
2018-03-04T00:31:28.529Z,-6.79
2018-03-04T00:32:28.280Z,-6.76
2018-03-04T00:33:28.802Z,-6.8
2018-03-04T00:34:28.552Z,-6.76
2018-03-04T00:35:43.487Z,-6.79
2018-03-04T00:36:28.829Z,-6.87
2018-03-04T00:37:28.836Z,-6.76
2018-03-04T00:38:28.848Z,-6.68
2018-03-04T00:39:28.595Z,-6.8
2018-03-04T00:40:28.857Z,-6.71
2018-03-04T00:41:28.868Z,-6.8
2018-03-04T00:42:28.626Z,-6.8
2018-03-04T00:43:28.630Z,-6.8
2018-03-04T00:45:28.907Z,-6.87
2018-03-04T00:46:28.911Z,-6.91
2018-03-04T00:47:28.918Z,-6.92
2018-03-04T00:48:28.922Z,-6.92
2018-03-04T00:49:28.683Z,-6.89
2018-03-04T00:50:28.944Z,-6.98
2018-03-04T00:51:28.951Z,-6.98
2018-03-04T00:52:28.968Z,-7.04
2018-03-04T00:53:43.654Z,-6.94
2018-03-04T00:55:29.027Z,-7.07
2018-03-04T00:56:43.661Z,-7.07
2018-03-04T00:57:29.005Z,-6.95
2018-03-04T00:58:29.013Z,-7.04
2018-03-04T00:59:28.767Z,-7.01
2018-03-04T01:00:29.033Z,-7.01
2018-03-04T01:01:29.036Z,-6.95
2018-03-04T01:02:29.056Z,-6.97
2018-03-04T01:03:29.052Z,-7.04
2018-03-04T01:04:28.813Z,-7.02
2018-03-04T01:05:29.074Z,-6.97
2018-03-04T01:06:29.083Z,-7.04
2018-03-04T01:07:29.092Z,-6.97
2018-03-04T01:08:29.106Z,-7.12
2018-03-04T01:09:29.109Z,-7.16
2018-03-04T01:10:43.783Z,-7.19
2018-03-04T01:11:28.868Z,-7.21
2018-03-04T01:12:43.796Z,-7.21
2018-03-04T01:13:29.141Z,-7.16
2018-03-04T01:14:28.892Z,-7.23
2018-03-04T01:15:29.156Z,-7.16
2018-03-04T01:16:29.163Z,-7.19
2018-03-04T01:17:29.235Z,-7.16
2018-03-04T01:18:29.195Z,-7.15
2018-03-04T01:19:28.932Z,-7.21
2018-03-04T01:20:29.201Z,-7.19
2018-03-04T01:21:28.955Z,-7.16
2018-03-04T01:22:29.220Z,-7.15
2018-03-04T01:23:29.226Z,-7.16
2018-03-04T01:24:28.978Z,-7.11
2018-03-04T01:25:29.241Z,-7.16
2018-03-04T01:26:44.020Z,-7.01
2018-03-04T01:29:29.022Z,-7.21
2018-03-04T01:30:29.284Z,-7.21
2018-03-04T01:31:29.038Z,-7.11
2018-03-04T01:32:29.301Z,-7
2018-03-04T01:33:29.312Z,-6.94
2018-03-04T01:34:29.321Z,-7.02
2018-03-04T01:35:29.430Z,-7.11
2018-03-04T01:36:29.335Z,-7.08
2018-03-04T01:37:29.090Z,-7.01
2018-03-04T01:38:29.356Z,-7.05
2018-03-04T01:39:28.849Z,-7.07
2018-03-04T01:40:29.114Z,-7.19
2018-03-04T01:41:29.376Z,-7.05
2018-03-04T01:42:44.051Z,-7.19
2018-03-04T01:43:29.394Z,-7.16
2018-03-04T01:44:29.402Z,-7.22
2018-03-04T01:45:29.415Z,-7.11
2018-03-04T01:46:29.421Z,-7.15
2018-03-04T01:47:29.428Z,-7.15
2018-03-04T01:48:29.435Z,-7.19
2018-03-04T01:49:29.446Z,-7.12
2018-03-04T01:50:29.456Z,-7.21
2018-03-04T01:51:29.462Z,-7.21
2018-03-04T01:52:29.470Z,-7.22
2018-03-04T01:53:29.484Z,-7.31
2018-03-04T01:54:29.231Z,-7.37
2018-03-04T01:55:29.495Z,-7.4
2018-03-04T01:56:29.252Z,-7.19
2018-03-04T01:57:44.178Z,-7.15
2018-03-04T01:59:29.552Z,-7.16
2018-03-04T02:01:29.302Z,-7.12
2018-03-04T02:02:29.556Z,-7.23
2018-03-04T02:03:29.307Z,-7.21
2018-03-04T02:04:29.062Z,-7.21
2018-03-04T02:05:29.582Z,-7.29
2018-03-04T02:06:29.596Z,-7.22
2018-03-04T02:07:44.303Z,-7.19
2018-03-04T02:08:29.612Z,-7.26
2018-03-04T02:09:29.362Z,-7.21
2018-03-04T02:10:29.620Z,-7.26
2018-03-04T02:11:29.634Z,-7.21
2018-03-04T02:12:29.638Z,-7.15
2018-03-04T02:13:44.314Z,-7.25
2018-03-04T02:14:29.655Z,-7.26
2018-03-04T02:15:29.663Z,-7.3
2018-03-04T02:17:29.684Z,-7.29
2018-03-04T02:18:29.689Z,-7.3
2018-03-04T02:19:44.391Z,-7.4
2018-03-04T02:20:29.450Z,-7.34
2018-03-04T02:21:29.460Z,-7.33
2018-03-04T02:22:29.726Z,-7.3
2018-03-04T02:23:29.736Z,-7.33
2018-03-04T02:24:29.483Z,-7.31
2018-03-04T02:25:29.748Z,-7.4
2018-03-04T02:26:29.761Z,-7.37
2018-03-04T02:27:29.764Z,-7.5
2018-03-04T02:28:29.771Z,-7.41
2018-03-04T02:29:44.446Z,-7.4
2018-03-04T02:30:29.808Z,-7.41
2018-03-04T02:32:29.812Z,-7.34
2018-03-04T02:33:29.833Z,-7.31
2018-03-04T02:34:29.585Z,-7.3
2018-03-04T02:35:29.832Z,-7.25
2018-03-04T02:36:29.873Z,-7.31
2018-03-04T02:37:29.853Z,-7.34
2018-03-04T02:38:29.864Z,-7.33
2018-03-04T02:39:29.886Z,-7.39
2018-03-04T02:40:29.882Z,-7.46
2018-03-04T02:41:29.886Z,-7.46
2018-03-04T02:42:44.566Z,-7.44
2018-03-04T02:43:29.905Z,-7.48
2018-03-04T02:44:29.921Z,-7.58
2018-03-04T02:45:44.581Z,-7.52
2018-03-04T02:46:29.925Z,-7.5
2018-03-04T02:47:29.945Z,-7.57
2018-03-04T02:48:29.943Z,-7.48
2018-03-04T02:49:29.694Z,-7.6
2018-03-04T02:50:29.956Z,-7.57
2018-03-04T02:51:29.452Z,-7.64
2018-03-04T02:53:29.726Z,-7.54
2018-03-04T02:54:29.740Z,-7.54
2018-03-04T02:55:30.001Z,-7.61
2018-03-04T02:56:29.757Z,-7.64
2018-03-04T02:57:29.759Z,-7.68
2018-03-04T02:58:29.767Z,-7.69
2018-03-04T02:59:29.777Z,-7.64
2018-03-04T03:00:30.141Z,-7.66
2018-03-04T03:01:44.711Z,-7.68
2018-03-04T03:02:44.468Z,-7.54
2018-03-04T03:04:29.821Z,-7.58
2018-03-04T03:05:29.568Z,-7.58
2018-03-04T03:06:30.095Z,-7.66
2018-03-04T03:07:29.854Z,-7.64
2018-03-04T03:08:30.108Z,-7.57
2018-03-04T03:09:29.866Z,-7.62
2018-03-04T03:10:29.924Z,-7.64
2018-03-04T03:11:29.881Z,-7.6
2018-03-04T03:12:29.879Z,-7.6
2018-03-04T03:13:29.893Z,-7.58
2018-03-04T03:14:29.898Z,-7.55
2018-03-04T03:15:44.928Z,-7.58
2018-03-04T03:16:29.919Z,-7.6
2018-03-04T03:17:44.844Z,-7.54
2018-03-04T03:18:29.932Z,-7.55
2018-03-04T03:19:30.263Z,-7.68
2018-03-04T03:20:29.949Z,-7.62
2018-03-04T03:21:30.208Z,-7.66
2018-03-04T03:22:30.228Z,-7.64
2018-03-04T03:23:30.230Z,-7.68
2018-03-04T03:24:30.236Z,-7.68
2018-03-04T03:25:30.244Z,-7.64
2018-03-04T03:26:30.256Z,-7.69
2018-03-04T03:27:30.267Z,-7.62
2018-03-04T03:28:30.272Z,-7.66
2018-03-04T03:29:30.023Z,-7.71
2018-03-04T03:30:30.293Z,-7.66
2018-03-04T03:31:30.303Z,-7.69
2018-03-04T03:32:44.714Z,-7.68
2018-03-04T03:33:30.313Z,-7.71
2018-03-04T03:34:30.373Z,-7.61
2018-03-04T03:36:30.342Z,-7.64
2018-03-04T03:37:30.347Z,-7.71
2018-03-04T03:38:30.097Z,-7.72
2018-03-04T03:39:30.363Z,-7.76
2018-03-04T03:40:30.371Z,-7.72
2018-03-04T03:41:29.866Z,-7.69
2018-03-04T03:42:30.384Z,-7.69
2018-03-04T03:43:29.892Z,-7.71
2018-03-04T03:44:30.401Z,-7.78
2018-03-04T03:45:30.410Z,-7.69
2018-03-04T03:46:30.172Z,-7.83
2018-03-04T03:48:30.438Z,-7.8
2018-03-04T03:49:45.109Z,-7.73
2018-03-04T03:50:30.448Z,-7.72
2018-03-04T03:51:30.461Z,-7.75
2018-03-04T03:52:30.468Z,-7.69
2018-03-04T03:53:30.476Z,-7.73
2018-03-04T03:54:30.495Z,-7.76
2018-03-04T03:55:30.491Z,-7.91
2018-03-04T03:56:30.598Z,-7.8
2018-03-04T03:57:29.998Z,-7.87
2018-03-04T03:58:30.539Z,-7.86
2018-03-04T03:59:30.540Z,-7.93
2018-03-04T04:00:30.535Z,-7.8
2018-03-04T04:01:30.286Z,-7.83
2018-03-04T04:02:30.560Z,-7.83
2018-03-04T04:03:30.556Z,-7.82
2018-03-04T04:04:44.976Z,-7.89
2018-03-04T04:05:45.239Z,-7.82
2018-03-04T04:06:30.585Z,-7.94
2018-03-04T04:07:45.253Z,-7.82
2018-03-04T04:08:30.598Z,-7.83
2018-03-04T04:09:30.604Z,-7.86
2018-03-04T04:10:30.619Z,-7.86
2018-03-04T04:11:30.372Z,-7.83
2018-03-04T04:12:30.638Z,-7.94
2018-03-04T04:13:30.637Z,-7.9
2018-03-04T04:14:30.405Z,-7.91
2018-03-04T04:15:45.326Z,-7.91
2018-03-04T04:16:30.663Z,-7.91
2018-03-04T04:17:30.422Z,-7.97
2018-03-04T04:18:30.727Z,-7.94
2018-03-04T04:19:30.685Z,-7.94
2018-03-04T04:20:45.365Z,-7.99
2018-03-04T04:21:30.702Z,-7.97
2018-03-04T04:22:45.377Z,-8.02
2018-03-04T04:23:30.463Z,-8.05
2018-03-04T04:24:30.471Z,-8.06
2018-03-04T04:25:30.741Z,-7.99
2018-03-04T04:26:30.742Z,-8.02
2018-03-04T04:27:30.750Z,-8.02
2018-03-04T04:28:30.763Z,-8.08
2018-03-04T04:29:30.766Z,-8.12
2018-03-04T04:30:30.774Z,-8.08
2018-03-04T04:31:30.527Z,-7.96
2018-03-04T04:32:30.795Z,-8.09
2018-03-04T04:33:30.545Z,-7.97
2018-03-04T04:34:30.806Z,-8.02
2018-03-04T04:35:30.816Z,-7.91
2018-03-04T04:36:45.494Z,-7.93
2018-03-04T04:38:45.506Z,-7.96
2018-03-04T04:39:45.514Z,-8.11
2018-03-04T04:40:30.862Z,-8.02
2018-03-04T04:41:30.609Z,-7.94
2018-03-04T04:42:30.875Z,-8.02
2018-03-04T04:43:30.628Z,-8.01
2018-03-04T04:44:30.949Z,-8.05
2018-03-04T04:45:30.958Z,-8.05
2018-03-04T04:46:30.909Z,-8.02
2018-03-04T04:47:30.914Z,-8.12
2018-03-04T04:48:30.919Z,-8.09
2018-03-04T04:49:45.599Z,-8.08
2018-03-04T04:50:30.682Z,-8.08
2018-03-04T04:51:30.690Z,-8.11
2018-03-04T04:52:45.622Z,-8.18
2018-03-04T04:53:30.961Z,-8.21
2018-03-04T04:54:30.715Z,-8.23
2018-03-04T04:55:30.982Z,-8.24
2018-03-04T04:56:30.987Z,-8.24
2018-03-04T04:57:30.995Z,-8.15
2018-03-04T04:58:31.002Z,-8.09
2018-03-04T04:59:31.031Z,-8.16
2018-03-04T05:00:31.023Z,-8.18
2018-03-04T05:01:31.029Z,-8.26
2018-03-04T05:02:31.039Z,-8.24
2018-03-04T05:03:31.041Z,-8.18
2018-03-04T05:04:45.725Z,-8.05
2018-03-04T05:05:31.063Z,-8.05
2018-03-04T05:06:31.074Z,-8.11
2018-03-04T05:07:45.741Z,-8.16
2018-03-04T05:08:31.080Z,-8.16
2018-03-04T05:10:31.104Z,-8.16
2018-03-04T05:12:30.860Z,-8.18
2018-03-04T05:13:30.870Z,-8.24
2018-03-04T05:14:30.880Z,-8.21
2018-03-04T05:15:31.147Z,-8.24
2018-03-04T05:16:31.149Z,-8.24
2018-03-04T05:17:31.158Z,-8.24
2018-03-04T05:18:31.164Z,-8.12
2018-03-04T05:19:31.173Z,-8.11
2018-03-04T05:20:31.181Z,-8.12
2018-03-04T05:21:31.189Z,-8.13
2018-03-04T05:22:31.202Z,-8.27
2018-03-04T05:23:31.203Z,-8.19
2018-03-04T05:24:30.957Z,-8.19
2018-03-04T05:25:45.885Z,-8.27
2018-03-04T05:26:31.229Z,-8.26
2018-03-04T05:27:45.900Z,-8.29
2018-03-04T05:28:31.247Z,-8.18
2018-03-04T05:29:30.998Z,-8.19
2018-03-04T05:30:31.005Z,-8.15
2018-03-04T05:31:31.271Z,-8.27
2018-03-04T05:32:31.279Z,-8.24
2018-03-04T05:33:31.384Z,-8.21
2018-03-04T05:34:31.301Z,-8.26
2018-03-04T05:35:31.316Z,-8.24
2018-03-04T05:36:31.306Z,-8.18
2018-03-04T05:37:31.316Z,-8.27
2018-03-04T05:38:31.324Z,-8.29
2018-03-04T05:39:45.997Z,-8.12
2018-03-04T05:40:31.338Z,-8.16
2018-03-04T05:41:46.014Z,-8.12
2018-03-04T05:42:31.357Z,-8.13
2018-03-04T05:43:31.108Z,-8.16
2018-03-04T05:44:31.386Z,-8.21
2018-03-04T05:45:31.378Z,-8.24
2018-03-04T05:46:31.391Z,-8.27
2018-03-04T05:47:31.397Z,-8.15
2018-03-04T05:48:31.411Z,-8.15
2018-03-04T05:49:31.416Z,-8.11
2018-03-04T05:50:31.422Z,-8.21
2018-03-04T05:51:31.429Z,-8.18
2018-03-04T05:52:31.440Z,-8.19
2018-03-04T05:53:46.114Z,-8.15
2018-03-04T05:54:31.457Z,-8.19
2018-03-04T05:55:46.130Z,-8.18
2018-03-04T05:56:31.476Z,-8.21
2018-03-04T05:57:31.482Z,-8.24
2018-03-04T05:58:31.488Z,-8.18
2018-03-04T05:59:31.495Z,-8.13
2018-03-04T06:00:31.500Z,-8.11
2018-03-04T06:01:30.998Z,-8.24
2018-03-04T06:02:31.261Z,-8.3
2018-03-04T06:03:31.532Z,-8.19
2018-03-04T06:04:31.279Z,-8.19
2018-03-04T06:05:31.291Z,-8.12
2018-03-04T06:06:31.294Z,-8.11
2018-03-04T06:07:31.556Z,-8.23
2018-03-04T06:08:31.564Z,-8.12
2018-03-04T06:09:31.318Z,-8.18
2018-03-04T06:10:46.249Z,-8.09
2018-03-04T06:11:46.257Z,-8.11
2018-03-04T06:12:46.009Z,-8.11
2018-03-04T06:14:31.628Z,-8.02
2018-03-04T06:15:31.625Z,-7.99
2018-03-04T06:16:31.634Z,-8.05
2018-03-04T06:17:31.643Z,-7.94
2018-03-04T06:18:31.648Z,-7.9
2018-03-04T06:19:31.655Z,-7.91
2018-03-04T06:20:31.664Z,-7.82
2018-03-04T06:21:31.416Z,-7.89
2018-03-04T06:22:31.683Z,-7.89
2018-03-04T06:23:31.687Z,-7.72
2018-03-04T06:24:31.439Z,-7.66
2018-03-04T06:25:31.704Z,-7.54
2018-03-04T06:27:46.388Z,-7.43
2018-03-04T06:28:31.783Z,-7.39
2018-03-04T06:29:46.407Z,-7.22
2018-03-04T06:32:31.514Z,-7.07
2018-03-04T06:33:31.909Z,-7.12
2018-03-04T06:34:31.535Z,-7.07
2018-03-04T06:35:31.801Z,-6.94
2018-03-04T06:36:31.814Z,-6.91
2018-03-04T06:37:31.823Z,-6.83
2018-03-04T06:38:46.506Z,-6.65
2018-03-04T06:39:31.849Z,-6.62
2018-03-04T06:40:31.862Z,-6.59
2018-03-04T06:41:46.539Z,-6.47
2018-03-04T06:42:46.552Z,-6.52
2018-03-04T06:43:31.895Z,-6.52
2018-03-04T06:44:31.661Z,-6.44
2018-03-04T06:46:31.931Z,-6.36
2018-03-04T06:47:31.945Z,-6.23
2018-03-04T06:48:31.956Z,-6.23
2018-03-04T06:49:31.972Z,-6.19
2018-03-04T06:50:31.725Z,-6.18
2018-03-04T06:51:32.002Z,-6.05
2018-03-04T06:52:32.007Z,-6.08
2018-03-04T06:53:32.022Z,-6.03
2018-03-04T06:54:32.040Z,-6.01
2018-03-04T06:55:46.721Z,-5.92
2018-03-04T06:57:32.080Z,-5.84
2018-03-04T06:58:46.762Z,-5.86
2018-03-04T06:59:46.772Z,-5.82
2018-03-04T07:00:46.785Z,-5.64
2018-03-04T07:01:32.134Z,-5.64
2018-03-04T07:02:32.147Z,-5.47
2018-03-04T07:03:32.160Z,-5.39
2018-03-04T07:04:32.178Z,-5.35
2018-03-04T07:05:31.939Z,-5.29
2018-03-04T07:06:31.954Z,-5.18
2018-03-04T07:07:32.221Z,-5.07
2018-03-04T07:08:31.985Z,-4.93
2018-03-04T07:09:32.256Z,-4.81
2018-03-04T07:10:32.378Z,-4.79
2018-03-04T07:11:32.286Z,-4.77
2018-03-04T07:13:32.362Z,-4.69
2018-03-04T07:14:47.002Z,-4.65
2018-03-04T07:15:32.090Z,-4.57
2018-03-04T07:16:32.366Z,-4.6
2018-03-04T07:17:47.048Z,-4.61
2018-03-04T07:18:32.416Z,-4.51
2018-03-04T07:19:32.158Z,-4.39
2018-03-04T07:20:32.174Z,-4.38
2018-03-04T07:21:32.445Z,-4.28
2018-03-04T07:22:32.205Z,-4.17
2018-03-04T07:23:32.652Z,-4.1
2018-03-04T07:24:31.982Z,-4.1
2018-03-04T07:25:32.255Z,-4.03
2018-03-04T07:26:32.531Z,-4.17
2018-03-04T07:27:32.289Z,-4.22
2018-03-04T07:28:32.305Z,-4.21
2018-03-04T07:30:47.261Z,-3.99
2018-03-04T07:31:32.614Z,-3.9
2018-03-04T07:32:32.373Z,-3.69
2018-03-04T07:33:32.390Z,-3.6
2018-03-04T07:34:32.405Z,-3.6
2018-03-04T07:35:32.423Z,-3.31
2018-03-04T07:36:32.694Z,-3.23
2018-03-04T07:37:32.460Z,-3.05
2018-03-04T07:38:32.725Z,-2.85
2018-03-04T07:39:32.743Z,-2.78
2018-03-04T07:40:32.507Z,-2.64
2018-03-04T07:41:32.523Z,-2.5
2018-03-04T07:42:32.794Z,-2.53
2018-03-04T07:43:32.813Z,-2.71
2018-03-04T07:44:32.825Z,-2.85
2018-03-04T07:46:47.527Z,-2.82
2018-03-04T07:47:32.620Z,-2.85
2018-03-04T07:48:47.562Z,-2.81
2018-03-04T07:49:32.915Z,-2.88
2018-03-04T07:50:32.416Z,-2.85
2018-03-04T07:51:32.941Z,-2.79
2018-03-04T07:52:33.208Z,-2.68
2018-03-04T07:53:32.717Z,-2.88
2018-03-04T07:54:32.985Z,-2.85
2018-03-04T07:55:33.004Z,-2.74
2018-03-04T07:56:33.022Z,-2.68
2018-03-04T07:57:32.777Z,-2.53
2018-03-04T07:58:32.540Z,-2.4
2018-03-04T07:59:33.145Z,-2.45
2018-03-04T08:00:32.841Z,-2.37
2018-03-04T08:01:32.846Z,-2.37
2018-03-04T08:02:47.781Z,-2.32
2018-03-04T08:03:33.129Z,-2.2
2018-03-04T08:04:47.810Z,-2.12
2018-03-04T08:06:33.176Z,-2.13
2018-03-04T08:07:32.682Z,-2.29
2018-03-04T08:08:33.256Z,-2.3
2018-03-04T08:09:33.323Z,-2.45
2018-03-04T08:10:32.985Z,-2.49
2018-03-04T08:11:33.315Z,-2.73
2018-03-04T08:12:33.268Z,-2.58
2018-03-04T08:13:33.280Z,-2.55
2018-03-04T08:14:33.294Z,-2.45
2018-03-04T08:15:33.319Z,-2.35
2018-03-04T08:16:47.993Z,-2.3
2018-03-04T08:17:48.009Z,-2.09
2018-03-04T08:18:33.119Z,-2.1
2018-03-04T08:19:33.375Z,-1.92
2018-03-04T08:20:33.126Z,-1.76
2018-03-04T08:21:33.398Z,-1.59
2018-03-04T08:22:33.410Z,-1.55
2018-03-04T08:23:33.425Z,-1.66
2018-03-04T08:24:33.446Z,-1.66
2018-03-04T08:25:33.465Z,-1.41
2018-03-04T08:26:33.464Z,-1.43
2018-03-04T08:27:33.480Z,-1.15
2018-03-04T08:28:33.638Z,-1.1
2018-03-04T08:29:33.512Z,-1.04
2018-03-04T08:30:33.526Z,-1.13
2018-03-04T08:31:33.539Z,-1.27
2018-03-04T08:32:33.553Z,-1.43
2018-03-04T08:33:33.572Z,-1.31
2018-03-04T08:34:48.256Z,-1.34
2018-03-04T08:36:33.635Z,-1.34
2018-03-04T08:37:33.630Z,-1.31
2018-03-04T08:38:33.642Z,-1.23
2018-03-04T08:39:33.682Z,-1.12
2018-03-04T08:40:33.730Z,-1.1
2018-03-04T08:42:33.699Z,-1.04
2018-03-04T08:43:33.714Z,-0.98
2018-03-04T08:44:33.727Z,-0.89
2018-03-04T08:45:48.417Z,-0.76
2018-03-04T08:46:33.504Z,-0.8
2018-03-04T08:47:33.769Z,-0.86
2018-03-04T08:48:33.789Z,-0.94
2018-03-04T08:49:48.475Z,-0.82
2018-03-04T08:50:48.520Z,-0.89
2018-03-04T08:51:33.845Z,-0.67
2018-03-04T08:52:33.849Z,-0.58
2018-03-04T08:53:33.862Z,-0.51
2018-03-04T08:54:33.884Z,-0.58
2018-03-04T08:55:33.893Z,-0.51
2018-03-04T08:56:33.911Z,-0.67
2018-03-04T08:57:33.664Z,-0.67
2018-03-04T08:58:33.937Z,-0.65
2018-03-04T08:59:33.952Z,-0.46
2018-03-04T09:00:33.965Z,-0.36
2018-03-04T09:01:33.985Z,-0.39
2018-03-04T09:02:33.997Z,-0.31
2018-03-04T09:03:34.093Z,-0.42
2018-03-04T09:04:33.777Z,-0.25
2018-03-04T09:05:48.709Z,-0.15
2018-03-04T09:06:33.799Z,-0.1
2018-03-04T09:07:33.817Z,-0.01
2018-03-04T09:08:34.136Z,0
2018-03-04T09:09:34.164Z,0.08
2018-03-04T09:11:33.884Z,0.1
2018-03-04T09:12:34.146Z,0.29
2018-03-04T09:13:34.162Z,0.28
2018-03-04T09:14:33.920Z,0.32
2018-03-04T09:15:34.195Z,0.41
2018-03-04T09:16:33.959Z,0.51
2018-03-04T09:17:34.228Z,0.35
2018-03-04T09:18:33.983Z,0.23
2018-03-04T09:19:34.254Z,0.26
2018-03-04T09:20:34.281Z,0.29
2018-03-04T09:21:48.999Z,0.35
2018-03-04T09:22:34.305Z,0.32
2018-03-04T09:24:34.329Z,0.36
2018-03-04T09:25:34.466Z,0.38
2018-03-04T09:26:34.362Z,0.44
2018-03-04T09:27:34.380Z,0.5
2018-03-04T09:28:34.137Z,0.38
2018-03-04T09:29:34.409Z,0.6
2018-03-04T09:30:34.428Z,0.65
2018-03-04T09:31:34.437Z,0.53
2018-03-04T09:32:34.461Z,0.51
2018-03-04T09:33:34.530Z,0.68
2018-03-04T09:34:34.228Z,0.62
2018-03-04T09:35:34.244Z,0.6
2018-03-04T09:36:34.515Z,0.47
2018-03-04T09:37:49.197Z,0.57
2018-03-04T09:38:34.570Z,0.66
2018-03-04T09:39:34.567Z,0.6
2018-03-04T09:40:34.322Z,0.73
2018-03-04T09:41:34.588Z,0.76
2018-03-04T09:42:34.604Z,0.83
2018-03-04T09:43:34.621Z,0.8
2018-03-04T09:44:34.638Z,0.9
2018-03-04T09:45:34.812Z,0.9
2018-03-04T09:46:34.671Z,0.7
2018-03-04T09:47:34.687Z,0.69
2018-03-04T09:48:34.704Z,0.73
2018-03-04T09:49:49.385Z,0.79
2018-03-04T09:50:34.474Z,0.86
2018-03-04T09:51:34.746Z,0.88
2018-03-04T09:52:49.430Z,0.87
2018-03-04T09:53:49.443Z,0.88
2018-03-04T09:54:34.797Z,1.04
2018-03-04T09:56:34.828Z,1.04
2018-03-04T09:57:34.840Z,1.09
2018-03-04T09:58:34.855Z,1.04
2018-03-04T09:59:34.873Z,1.14
2018-03-04T10:00:34.883Z,1.18
2018-03-04T10:01:34.655Z,1.23
2018-03-04T10:02:34.916Z,1.2
2018-03-04T10:03:34.931Z,1.3
2018-03-04T10:04:34.690Z,1.42
2018-03-04T10:05:34.705Z,1.51
2018-03-04T10:06:34.974Z,1.6
2018-03-04T10:07:34.994Z,1.69
2018-03-04T10:08:49.435Z,1.63
2018-03-04T10:09:49.433Z,1.76
2018-03-04T10:10:34.780Z,1.84
2018-03-04T10:12:34.814Z,1.8
2018-03-04T10:13:35.088Z,1.73
2018-03-04T10:14:34.845Z,1.69
2018-03-04T10:15:34.860Z,1.76
2018-03-04T10:16:34.875Z,1.69
2018-03-04T10:17:35.147Z,1.88
2018-03-04T10:18:35.161Z,1.88
2018-03-04T10:19:35.184Z,1.95
2018-03-04T10:20:35.241Z,1.99
2018-03-04T10:21:49.879Z,1.99
2018-03-04T10:22:34.969Z,1.9
2018-03-04T10:23:35.238Z,1.81
2018-03-04T10:24:49.925Z,1.76
2018-03-04T10:26:35.291Z,1.7
2018-03-04T10:27:35.305Z,1.58
2018-03-04T10:28:35.064Z,1.55
2018-03-04T10:29:35.081Z,1.54
2018-03-04T10:30:34.837Z,1.55
2018-03-04T10:31:35.213Z,1.42
2018-03-04T10:32:35.383Z,1.52
2018-03-04T10:33:35.398Z,1.63
2018-03-04T10:34:35.154Z,1.55
2018-03-04T10:35:35.425Z,1.47
2018-03-04T10:36:35.442Z,1.42
2018-03-04T10:37:35.461Z,1.34
2018-03-04T10:38:35.217Z,1.3
2018-03-04T10:39:35.488Z,1.47
2018-03-04T10:40:50.173Z,1.58
2018-03-04T10:41:35.522Z,1.6
2018-03-04T10:43:35.292Z,1.63
2018-03-04T10:44:50.226Z,1.52
2018-03-04T10:45:35.578Z,1.4
2018-03-04T10:46:35.588Z,1.4
2018-03-04T10:47:35.609Z,1.59
2018-03-04T10:48:35.627Z,1.77
2018-03-04T10:49:35.379Z,1.83
2018-03-04T10:50:35.393Z,1.76
2018-03-04T10:51:35.668Z,1.62
2018-03-04T10:52:35.857Z,1.77
2018-03-04T10:53:35.696Z,1.8
2018-03-04T10:54:35.455Z,1.9
2018-03-04T10:55:35.724Z,1.79
2018-03-04T10:56:50.404Z,1.84
2018-03-04T10:57:35.751Z,1.76
2018-03-04T10:58:50.434Z,1.84
2018-03-04T10:59:35.780Z,1.79
2018-03-04T11:01:35.556Z,1.81
2018-03-04T11:03:35.837Z,1.86
2018-03-04T11:04:35.598Z,1.86
2018-03-04T11:05:35.615Z,1.95
2018-03-04T11:06:35.885Z,1.84
2018-03-04T11:07:35.900Z,1.79
2018-03-04T11:08:35.912Z,1.7
2018-03-04T11:09:35.671Z,1.68
2018-03-04T11:10:35.684Z,1.66
2018-03-04T11:11:36.040Z,1.79
2018-03-04T11:12:50.635Z,1.88
2018-03-04T11:13:50.651Z,1.79
2018-03-04T11:14:36.001Z,1.88
2018-03-04T11:15:50.679Z,1.84
2018-03-04T11:16:36.036Z,1.87
2018-03-04T11:17:36.040Z,2.02
2018-03-04T11:18:36.056Z,1.98
2018-03-04T11:19:36.069Z,2.02
2018-03-04T11:20:35.829Z,1.95
2018-03-04T11:21:36.102Z,2.1
2018-03-04T11:22:36.114Z,2.25
2018-03-04T11:23:36.127Z,2.42
2018-03-04T11:24:36.140Z,2.36
2018-03-04T11:25:36.163Z,2.35
2018-03-04T11:26:36.175Z,2.36
2018-03-04T11:27:50.852Z,2.45
2018-03-04T11:28:36.321Z,2.48
2018-03-04T11:29:36.211Z,2.42
2018-03-04T11:30:35.976Z,2.52
2018-03-04T11:31:35.984Z,2.63
2018-03-04T11:32:35.997Z,2.72
2018-03-04T11:33:36.270Z,2.79
2018-03-04T11:34:36.283Z,2.69
2018-03-04T11:35:36.043Z,2.66
2018-03-04T11:36:36.311Z,2.48
2018-03-04T11:37:36.071Z,2.6
2018-03-04T11:38:36.085Z,2.82
2018-03-04T11:39:36.354Z,2.84
2018-03-04T11:40:36.368Z,2.89
2018-03-04T11:41:36.128Z,2.97
2018-03-04T11:42:36.141Z,3.13
2018-03-04T11:43:36.417Z,3.11
2018-03-04T11:44:51.096Z,3.21
2018-03-04T11:45:36.184Z,3.21
2018-03-04T11:46:36.203Z,3.18
2018-03-04T11:49:36.503Z,3.08
2018-03-04T11:50:36.515Z,3
2018-03-04T11:51:36.528Z,2.96
2018-03-04T11:52:36.541Z,3.03
2018-03-04T11:53:36.298Z,3.11
2018-03-04T11:54:36.588Z,3.06
2018-03-04T11:55:36.594Z,3.18
2018-03-04T11:56:36.603Z,3.2
2018-03-04T11:57:36.623Z,3.15
2018-03-04T11:58:36.373Z,3.18
2018-03-04T11:59:51.308Z,3.28
2018-03-04T12:00:36.666Z,3.33
2018-03-04T12:01:51.339Z,3.6
2018-03-04T12:03:36.703Z,3.6
2018-03-04T12:04:36.714Z,3.51
2018-03-04T12:05:36.729Z,3.54
2018-03-04T12:06:36.744Z,3.47
2018-03-04T12:07:36.757Z,3.51
2018-03-04T12:08:36.776Z,3.5
2018-03-04T12:10:36.547Z,3.48
2018-03-04T12:12:36.884Z,3.61
2018-03-04T12:13:36.845Z,3.61
2018-03-04T12:14:36.872Z,3.58
2018-03-04T12:15:51.547Z,3.61
2018-03-04T12:16:36.893Z,3.52
2018-03-04T12:17:36.904Z,3.48
2018-03-04T12:18:36.924Z,3.51
2018-03-04T12:19:36.424Z,3.65
2018-03-04T12:20:36.694Z,3.66
2018-03-04T12:21:36.713Z,3.66
2018-03-04T12:22:36.979Z,3.43
2018-03-04T12:23:36.992Z,3.47
2018-03-04T12:24:37.005Z,3.5
2018-03-04T12:25:37.017Z,3.58
2018-03-04T12:26:37.043Z,3.51
2018-03-04T12:27:37.049Z,3.5
2018-03-04T12:28:37.065Z,3.45
2018-03-04T12:29:37.082Z,3.47
2018-03-04T12:30:37.093Z,3.5
2018-03-04T12:31:51.776Z,3.62
2018-03-04T12:32:37.123Z,3.54
2018-03-04T12:33:51.804Z,3.54
2018-03-04T12:34:37.154Z,3.65
2018-03-04T12:35:37.166Z,3.62
2018-03-04T12:36:37.187Z,3.73
2018-03-04T12:37:37.208Z,3.87
2018-03-04T12:38:37.215Z,3.78
2018-03-04T12:39:37.225Z,3.84
2018-03-04T12:40:37.241Z,3.83
2018-03-04T12:41:37.254Z,3.79
2018-03-04T12:42:37.368Z,3.84
2018-03-04T12:43:37.284Z,3.83
2018-03-04T12:44:37.298Z,3.75
2018-03-04T12:45:37.315Z,3.98
2018-03-04T12:46:37.375Z,3.86
2018-03-04T12:47:52.010Z,3.78
2018-03-04T12:48:37.397Z,3.84
2018-03-04T12:49:37.373Z,3.72
2018-03-04T12:50:37.387Z,3.79
2018-03-04T12:51:37.401Z,3.84
2018-03-04T12:52:37.420Z,3.79
2018-03-04T12:53:37.429Z,3.73
2018-03-04T12:54:37.449Z,3.86
2018-03-04T12:55:37.723Z,3.83
2018-03-04T12:56:37.228Z,3.83
2018-03-04T12:57:37.238Z,3.93
2018-03-04T12:58:37.258Z,3.9
2018-03-04T12:59:37.266Z,3.87
2018-03-04T13:00:52.301Z,4.06
2018-03-04T13:01:37.550Z,4.08
2018-03-04T13:02:52.228Z,4.2
2018-03-04T13:03:37.588Z,4.15
2018-03-04T13:04:37.593Z,4.15
2018-03-04T13:05:37.606Z,4.09
2018-03-04T13:06:37.622Z,4.18
2018-03-04T13:07:37.636Z,4.08
2018-03-04T13:08:37.398Z,4.05
2018-03-04T13:09:37.411Z,4.16
2018-03-04T13:10:37.681Z,4.27
2018-03-04T13:11:37.696Z,4.32
2018-03-04T13:12:37.722Z,4.27
2018-03-04T13:13:37.470Z,4.33
2018-03-04T13:14:37.487Z,4.2
2018-03-04T13:15:37.863Z,4.36
2018-03-04T13:16:37.785Z,4.37
2018-03-04T13:17:37.630Z,4.27
2018-03-04T13:18:52.469Z,4.36
2018-03-04T13:19:37.811Z,4.26
2018-03-04T13:20:37.836Z,4.32
2018-03-04T13:21:37.846Z,4.24
2018-03-04T13:22:37.859Z,4.23
2018-03-04T13:23:37.743Z,4.27
2018-03-04T13:24:37.386Z,4.08
2018-03-04T13:25:37.905Z,4.04
2018-03-04T13:26:37.669Z,4.12
2018-03-04T13:27:37.942Z,4.22
2018-03-04T13:28:37.949Z,4.24
2018-03-04T13:29:37.963Z,4.16
2018-03-04T13:30:37.724Z,4.16
2018-03-04T13:31:37.736Z,4.09
2018-03-04T13:32:38.014Z,4.09
2018-03-04T13:33:38.020Z,4.27
2018-03-04T13:34:52.451Z,4.23
2018-03-04T13:35:38.051Z,4.29
2018-03-04T13:36:37.811Z,4.36
2018-03-04T13:37:38.087Z,4.32
2018-03-04T13:38:52.763Z,4.47
2018-03-04T13:39:38.114Z,4.48
2018-03-04T13:41:37.896Z,4.24
2018-03-04T13:42:38.161Z,4.12
2018-03-04T13:43:38.176Z,4.12
2018-03-04T13:44:37.930Z,4.14